VOE81UT LEMD-LEAS
Flight info
| Callsign | VOE81UT |
|---|---|
| Flight time | 0h 47m |
| Altitude | 30000 |
| Route | ZMR3B ZMR DCT VETAN DCT OMESI/N0405F240 M30 XONDA XONDA1Q |
| Aircraft | A320/M-SDE3FGHIRWY/LB1 |
Departure
| Time | 2026-05-04 16:12 |
|---|---|
| Airport | Adolfo Suárez Madrid–Barajas Airport (LEMD) |
Arrival
| Time | 2026-05-04 16:59 |
|---|---|
| Airport | Asturias Airport (LEAS) |
| Time | Latitude | Longitude | Altitude | Speed | Heading |
|---|---|---|---|---|---|
| 2026-05-04 15:45 | 40.47364 | -3.57089 | 1990 ft | 0 kts | 182° |
| 2026-05-04 16:04 | 40.47377 | -3.57087 | 1990 ft | 2 kts | 211° |
| 2026-05-04 16:04 | 40.47400 | -3.57058 | 1991 ft | 2 kts | 253° |
| 2026-05-04 16:04 | 40.47403 | -3.57036 | 1991 ft | 2 kts | 271° |
| 2026-05-04 16:05 | 40.47401 | -3.57015 | 1990 ft | 2 kts | 292° |
| 2026-05-04 16:05 | 40.47397 | -3.57001 | 1988 ft | 1 kts | 320° |
| 2026-05-04 16:05 | 40.47396 | -3.57001 | 1988 ft | 0 kts | 322° |
| 2026-05-04 16:06 | 40.47406 | -3.57011 | 1990 ft | 6 kts | 319° |
| 2026-05-04 16:06 | 40.47600 | -3.57287 | 1998 ft | 18 kts | 321° |
| 2026-05-04 16:07 | 40.47723 | -3.57412 | 2002 ft | 17 kts | 322° |
| 2026-05-04 16:07 | 40.47862 | -3.57438 | 2003 ft | 3 kts | 52° |
| 2026-05-04 16:08 | 40.47934 | -3.57340 | 2005 ft | 22 kts | 16° |
| 2026-05-04 16:08 | 40.48301 | -3.57675 | 1996 ft | 16 kts | 337° |
| 2026-05-04 16:09 | 40.48341 | -3.57668 | 1996 ft | 0 kts | 27° |
| 2026-05-04 16:09 | 40.48349 | -3.57584 | 1998 ft | 13 kts | 110° |
| 2026-05-04 16:10 | 40.48264 | -3.57370 | 2002 ft | 10 kts | 140° |
| 2026-05-04 16:11 | 40.48247 | -3.57352 | 2003 ft | 17 kts | 142° |
| 2026-05-04 16:11 | 40.47897 | -3.56999 | 1998 ft | 106 kts | 141° |
| 2026-05-04 16:12 | 40.45131 | -3.53974 | 3604 ft | 184 kts | 135° |
| 2026-05-04 16:12 | 40.42274 | -3.49720 | 4568 ft | 240 kts | 141° |
| 2026-05-04 16:13 | 40.39738 | -3.46662 | 6018 ft | 250 kts | 141° |
| 2026-05-04 16:13 | 40.37151 | -3.43575 | 7657 ft | 252 kts | 142° |
| 2026-05-04 16:14 | 40.34179 | -3.41137 | 8772 ft | 270 kts | 176° |
| 2026-05-04 16:14 | 40.30716 | -3.42609 | 10145 ft | 274 kts | 223° |
| 2026-05-04 16:15 | 40.26110 | -3.48474 | 11180 ft | 330 kts | 242° |
| 2026-05-04 16:16 | 40.25986 | -3.54363 | 12540 ft | 343 kts | 292° |
| 2026-05-04 16:16 | 40.28885 | -3.61792 | 14387 ft | 349 kts | 285° |
| 2026-05-04 16:17 | 40.29923 | -3.68084 | 15705 ft | 352 kts | 277° |
| 2026-05-04 16:18 | 40.30938 | -3.77751 | 17614 ft | 360 kts | 276° |
| 2026-05-04 16:18 | 40.31299 | -3.80878 | 18208 ft | 362 kts | 277° |
| 2026-05-04 16:19 | 40.32566 | -3.90906 | 19788 ft | 370 kts | 277° |
| 2026-05-04 16:19 | 40.33428 | -3.97588 | 20800 ft | 375 kts | 277° |
| 2026-05-04 16:20 | 40.34721 | -4.07796 | 22293 ft | 382 kts | 277° |
| 2026-05-04 16:20 | 40.35577 | -4.14627 | 23236 ft | 387 kts | 277° |
| 2026-05-04 16:21 | 40.37868 | -4.24942 | 24466 ft | 402 kts | 297° |
| 2026-05-04 16:22 | 40.41572 | -4.30437 | 25214 ft | 416 kts | 313° |
| 2026-05-04 16:22 | 40.48180 | -4.38177 | 26380 ft | 420 kts | 313° |
| 2026-05-04 16:23 | 40.54778 | -4.45936 | 27454 ft | 427 kts | 312° |
| 2026-05-04 16:24 | 40.63667 | -4.56420 | 28755 ft | 434 kts | 312° |
| 2026-05-04 16:25 | 40.68184 | -4.61759 | 29361 ft | 438 kts | 312° |
| 2026-05-04 16:26 | 40.77234 | -4.72459 | 29964 ft | 430 kts | 311° |
| 2026-05-04 16:26 | 40.83896 | -4.80385 | 29968 ft | 428 kts | 311° |
| 2026-05-04 16:28 | 40.94966 | -4.93610 | 29963 ft | 428 kts | 311° |
| 2026-05-04 16:29 | 41.10354 | -5.12082 | 29965 ft | 428 kts | 311° |
| 2026-05-04 16:31 | 41.21453 | -5.25482 | 29959 ft | 429 kts | 311° |
| 2026-05-04 16:32 | 41.34596 | -5.41436 | 29953 ft | 429 kts | 311° |
| 2026-05-04 16:33 | 41.43428 | -5.52219 | 29942 ft | 429 kts | 311° |
| 2026-05-04 16:34 | 41.50054 | -5.60297 | 29937 ft | 431 kts | 314° |
| 2026-05-04 16:35 | 41.58531 | -5.64958 | 29935 ft | 459 kts | 346° |
| 2026-05-04 16:35 | 41.68190 | -5.66656 | 29934 ft | 461 kts | 347° |
| 2026-05-04 16:36 | 41.77722 | -5.68313 | 29942 ft | 461 kts | 346° |
| 2026-05-04 16:37 | 41.87261 | -5.69998 | 29940 ft | 462 kts | 346° |
| 2026-05-04 16:38 | 42.00047 | -5.72274 | 29943 ft | 463 kts | 346° |
| 2026-05-04 16:39 | 42.09613 | -5.73986 | 29269 ft | 465 kts | 347° |
| 2026-05-04 16:39 | 42.16057 | -5.75142 | 28732 ft | 466 kts | 347° |
| 2026-05-04 16:40 | 42.22492 | -5.76296 | 28173 ft | 464 kts | 347° |
| 2026-05-04 16:40 | 42.28874 | -5.77435 | 27454 ft | 458 kts | 347° |
| 2026-05-04 16:41 | 42.35091 | -5.78552 | 26179 ft | 451 kts | 347° |
| 2026-05-04 16:41 | 42.44379 | -5.80231 | 24322 ft | 441 kts | 348° |
| 2026-05-04 16:42 | 42.53402 | -5.81865 | 22519 ft | 430 kts | 348° |
| 2026-05-04 16:43 | 42.59250 | -5.82921 | 21482 ft | 419 kts | 348° |
| 2026-05-04 16:43 | 42.64965 | -5.83954 | 20510 ft | 409 kts | 348° |
| 2026-05-04 16:43 | 42.67714 | -5.84452 | 20048 ft | 404 kts | 349° |
| 2026-05-04 16:44 | 42.78735 | -5.86471 | 18141 ft | 392 kts | 349° |
| 2026-05-04 16:45 | 42.84069 | -5.87449 | 17147 ft | 385 kts | 349° |
| 2026-05-04 16:46 | 42.91975 | -5.88840 | 15677 ft | 378 kts | 350° |
| 2026-05-04 16:46 | 42.97195 | -5.89697 | 14682 ft | 377 kts | 350° |
| 2026-05-04 16:47 | 43.02363 | -5.90557 | 13648 ft | 374 kts | 352° |
| 2026-05-04 16:47 | 43.07528 | -5.89786 | 12591 ft | 374 kts | 17° |
| 2026-05-04 16:48 | 43.13618 | -5.85428 | 11166 ft | 369 kts | 29° |
| 2026-05-04 16:48 | 43.15846 | -5.83677 | 10660 ft | 365 kts | 29° |
| 2026-05-04 16:49 | 43.20078 | -5.80348 | 10401 ft | 337 kts | 29° |
| 2026-05-04 16:49 | 43.24024 | -5.77255 | 10151 ft | 314 kts | 29° |
| 2026-05-04 16:50 | 43.27866 | -5.74870 | 9635 ft | 303 kts | 17° |
| 2026-05-04 16:50 | 43.31856 | -5.73050 | 8823 ft | 301 kts | 18° |
| 2026-05-04 16:51 | 43.35819 | -5.71231 | 8047 ft | 298 kts | 18° |
| 2026-05-04 16:51 | 43.37783 | -5.70330 | 7652 ft | 296 kts | 18° |
| 2026-05-04 16:51 | 43.41672 | -5.68544 | 6852 ft | 292 kts | 18° |
| 2026-05-04 16:52 | 43.45351 | -5.66964 | 6042 ft | 266 kts | 4° |
| 2026-05-04 16:52 | 43.47102 | -5.67443 | 5658 ft | 247 kts | 326° |
| 2026-05-04 16:53 | 43.48675 | -5.71138 | 5141 ft | 230 kts | 287° |
| 2026-05-04 16:53 | 43.50114 | -5.77277 | 4230 ft | 210 kts | 289° |
| 2026-05-04 16:54 | 43.50567 | -5.79166 | 3957 ft | 207 kts | 289° |
| 2026-05-04 16:55 | 43.52244 | -5.86178 | 2915 ft | 173 kts | 289° |
| 2026-05-04 16:55 | 43.52965 | -5.89197 | 2464 ft | 157 kts | 289° |
| 2026-05-04 16:56 | 43.53598 | -5.91851 | 2089 ft | 133 kts | 289° |
| 2026-05-04 16:56 | 43.54454 | -5.95475 | 1592 ft | 137 kts | 287° |
| 2026-05-04 16:57 | 43.54750 | -5.96709 | 1432 ft | 140 kts | 290° |
| 2026-05-04 16:57 | 43.55344 | -5.99220 | 929 ft | 138 kts | 290° |
| 2026-05-04 16:58 | 43.56190 | -6.02775 | 431 ft | 115 kts | 288° |
| 2026-05-04 16:58 | 43.56414 | -6.03705 | 417 ft | 84 kts | 289° |
| 2026-05-04 16:59 | 43.56617 | -6.04562 | 421 ft | 3 kts | 287° |
| 2026-05-04 17:00 | 43.56476 | -6.04649 | 418 ft | 13 kts | 121° |
| 2026-05-04 17:00 | 43.56368 | -6.04206 | 416 ft | 19 kts | 108° |
| 2026-05-04 17:01 | 43.56289 | -6.03878 | 419 ft | 16 kts | 108° |
| 2026-05-04 17:01 | 43.56230 | -6.03633 | 421 ft | 12 kts | 108° |
| 2026-05-04 17:02 | 43.56190 | -6.03460 | 420 ft | 7 kts | 107° |
| 2026-05-04 17:02 | 43.56144 | -6.03263 | 421 ft | 12 kts | 113° |
| 2026-05-04 17:03 | 43.56078 | -6.03250 | 418 ft | 10 kts | 233° |
| 2026-05-04 17:03 | 43.56072 | -6.03303 | 426 ft | 2 kts | 266° |
| 2026-05-04 17:03 | 43.56041 | -6.03346 | 424 ft | 3 kts | 199° |
| 2026-05-04 17:04 | 43.56029 | -6.03351 | 424 ft | 0 kts | 198° |